• Join FlightAware (Why Join?)
  • Login
  • US Flag 
12:56AM EDT


 

Airport Tracker/Info


-or-


 

Live Flight TrackerFlight Track Log ✈ HAL118 ✈ 20-Apr-2013 ✈ PHNL - PHKO / KOA

Flight Track Log - Related Links

Times and Time Zones

All times are in EDT time to prevent confusion due to time zone crossing. See the HAL118 flight status page for this flight to view local times or setup timezone preferences in your user account.

Time Position Orientation Groundspeed Altitude Reporting Facility
EDT Latitude Longitude Course Direction KTS MPH feet Rate Location/Type
01:19PM 21.3167 -157.9000 118° Southeast 180 207 800  Level Honolulu Center
01:20PM 21.2667 -157.8500 137° Southeast 230 265 2,500 1,740 Climbing Honolulu Center
01:21PM 21.2333 -157.7833 118° Southeast 280 322 4,300 2,280 Climbing Honolulu Center
01:22PM 21.1936 -157.7341 113° Southeast  Level FlightAware Approximate
01:22PM 21.2000 -157.7167 118° Southeast 270 311 7,100  Level Honolulu Center
01:23PM 21.1653 -157.6647 126° Southeast  Level FlightAware Approximate
01:23PM 21.1500 -157.6500 129° Southeast 290 334 9,300  Level Honolulu Center
01:24PM 21.1242 -157.6030 126° Southeast  Level FlightAware Approximate
01:24PM 21.1000 -157.5833 129° Southeast 310 357 11,100  Level Honolulu Center
01:25PM 21.0863 -157.5393 118° Southeast  Level FlightAware Approximate
01:25PM 21.0500 -157.4833 118° Southeast 350 403 12,600  Level Honolulu Center
01:26PM 21.0000 -157.4000 123° Southeast 370 426 14,400 1,800 Climbing Honolulu Center
01:27PM 20.9500 -157.3000 118° Southeast 380 437 16,300 1,680 Climbing Honolulu Center
01:28PM 20.9000 -157.2000 118° Southeast 400 460 17,800 1,860 Climbing Honolulu Center
01:29PM 20.8167 -157.1167 137° Southeast 390 449 20,100 1,560 Climbing Honolulu Center
01:30PM 20.7500 -157.0167 125° Southeast 400 460 21,000 420 Climbing Honolulu Center
01:31PM 20.6667 -156.9167 132° Southeast 440 506 21,000  Level Honolulu Center
01:32PM 20.5833 -156.8333 137° Southeast 440 506 21,000  Level Honolulu Center
01:33PM 20.5000 -156.7167 127° Southeast 450 518 21,000 -1,020 Level Honolulu Center
01:34PM 20.4167 -156.6333 137° Southeast 430 495 19,000 -2,700 Descending Honolulu Center
01:35PM 20.3333 -156.5333 132° Southeast 430 495 15,600 -3,240 Descending Honolulu Center
01:36PM 20.2667 -156.4500 130° Southeast 400 460 12,600 -2,940 Descending Honolulu Center
01:37PM 20.1833 -156.3667 137° Southeast 370 426 9,700 -2,100 Descending Honolulu Center
01:38PM 20.1333 -156.3000 129° Southeast 340 391 8,400 -1,440 Descending Honolulu Center
01:39PM 20.0833 -156.2333 129° Southeast 280 322 6,900 -1,620 Descending Honolulu Center
01:40PM 20.0167 -156.1667 137° Southeast 280 322 5,200 -1,800 Descending Honolulu Center
01:41PM 19.9667 -156.1167 137° Southeast 260 299 3,400 -1,140 Descending Honolulu Center
01:42PM 19.9333 -156.0500 118° Southeast 230 265 3,000 -420 Descending Honolulu Center